sensor_id;sensor_type;location;lat;lon;timestamp;pressure;altitude;pressure_sealevel;temperature;humidity
7986;BME280;4038;42.612;23.066;2022-09-09T00:00:32;93313.88;;;22.11;66.35
7986;BME280;4038;42.612;23.066;2022-09-09T00:03:26;93316.66;;;22.44;65.68
7986;BME280;4038;42.612;23.066;2022-09-09T00:05:59;93310.69;;;22.15;66.27
7986;BME280;4038;42.612;23.066;2022-09-09T00:08:50;93284.06;;;21.66;67.74
7986;BME280;4038;42.612;23.066;2022-09-09T00:11:25;93306.34;;;21.81;67.54
7986;BME280;4038;42.612;23.066;2022-09-09T00:13:54;93296.78;;;22.00;66.83
7986;BME280;4038;42.612;23.066;2022-09-09T00:16:24;93300.88;;;21.91;66.89
7986;BME280;4038;42.612;23.066;2022-09-09T00:21:36;93290.53;;;21.76;67.73
7986;BME280;4038;42.612;23.066;2022-09-09T00:32:34;93275.59;;;21.89;67.01
7986;BME280;4038;42.612;23.066;2022-09-09T00:35:25;93277.31;;;21.77;67.53
7986;BME280;4038;42.612;23.066;2022-09-09T00:37:55;93285.84;;;21.87;67.07
7986;BME280;4038;42.612;23.066;2022-09-09T00:40:26;93287.47;;;21.97;66.68
7986;BME280;4038;42.612;23.066;2022-09-09T00:54:28;93268.84;;;21.60;67.31
7986;BME280;4038;42.612;23.066;2022-09-09T00:57:11;93276.25;;;21.65;67.40
7986;BME280;4038;42.612;23.066;2022-09-09T00:59:59;93276.81;;;21.63;67.04
7986;BME280;4038;42.612;23.066;2022-09-09T01:05:46;93275.75;;;21.91;66.02
7986;BME280;4038;42.612;23.066;2022-09-09T01:11:37;93284.97;;;22.16;64.86
7986;BME280;4038;42.612;23.066;2022-09-09T01:14:24;93289.97;;;22.26;64.75
7986;BME280;4038;42.612;23.066;2022-09-09T01:16:59;93283.38;;;21.98;65.59
7986;BME280;4038;42.612;23.066;2022-09-09T01:28:21;93278.84;;;20.54;72.25
7986;BME280;4038;42.612;23.066;2022-09-09T01:30:47;93275.78;;;20.07;74.31
7986;BME280;4038;42.612;23.066;2022-09-09T01:33:15;93275.16;;;20.67;72.43
7986;BME280;4038;42.612;23.066;2022-09-09T01:35:50;93274.75;;;20.78;71.93
7986;BME280;4038;42.612;23.066;2022-09-09T01:38:20;93278.63;;;20.90;71.32
7986;BME280;4038;42.612;23.066;2022-09-09T01:40:46;93279.91;;;21.12;70.70
7986;BME280;4038;42.612;23.066;2022-09-09T01:43:12;93287.94;;;21.00;71.27
7986;BME280;4038;42.612;23.066;2022-09-09T01:45:39;93280.53;;;20.57;72.42
7986;BME280;4038;42.612;23.066;2022-09-09T01:48:06;93287.38;;;20.56;72.62
7986;BME280;4038;42.612;23.066;2022-09-09T01:50:31;93283.97;;;21.34;69.49
7986;BME280;4038;42.612;23.066;2022-09-09T01:52:58;93279.13;;;21.42;68.56
7986;BME280;4038;42.612;23.066;2022-09-09T01:55:38;93280.28;;;21.39;68.68
7986;BME280;4038;42.612;23.066;2022-09-09T01:58:17;93292.56;;;21.21;69.58
7986;BME280;4038;42.612;23.066;2022-09-09T02:01:00;93278.78;;;21.30;68.54
7986;BME280;4038;42.612;23.066;2022-09-09T02:03:28;93287.25;;;21.55;67.70
7986;BME280;4038;42.612;23.066;2022-09-09T02:08:47;93276.25;;;20.56;71.45
7986;BME280;4038;42.612;23.066;2022-09-09T02:11:23;93277.75;;;20.73;71.09
7986;BME280;4038;42.612;23.066;2022-09-09T02:13:52;93276.75;;;20.32;73.46
7986;BME280;4038;42.612;23.066;2022-09-09T02:16:24;93283.72;;;19.87;75.60
7986;BME280;4038;42.612;23.066;2022-09-09T02:18:57;93278.59;;;19.56;76.62
7986;BME280;4038;42.612;23.066;2022-09-09T02:21:28;93271.97;;;19.66;76.99
7986;BME280;4038;42.612;23.066;2022-09-09T02:23:56;93289.59;;;19.69;76.96
7986;BME280;4038;42.612;23.066;2022-09-09T02:26:24;93280.03;;;19.93;75.48
7986;BME280;4038;42.612;23.066;2022-09-09T02:28:53;93293.34;;;20.45;73.70
7986;BME280;4038;42.612;23.066;2022-09-09T02:31:22;93284.34;;;20.09;74.80
7986;BME280;4038;42.612;23.066;2022-09-09T02:33:53;93299.47;;;19.77;76.02
7986;BME280;4038;42.612;23.066;2022-09-09T02:36:23;93300.59;;;19.89;76.35
7986;BME280;4038;42.612;23.066;2022-09-09T02:38:49;93301.09;;;20.39;73.34
7986;BME280;4038;42.612;23.066;2022-09-09T02:41:25;93297.72;;;20.25;74.02
7986;BME280;4038;42.612;23.066;2022-09-09T02:43:53;93290.91;;;19.75;74.99
7986;BME280;4038;42.612;23.066;2022-09-09T02:46:27;93309.00;;;20.05;74.57
7986;BME280;4038;42.612;23.066;2022-09-09T02:51:53;93291.72;;;19.47;76.78
7986;BME280;4038;42.612;23.066;2022-09-09T02:54:32;93297.66;;;19.87;74.98
7986;BME280;4038;42.612;23.066;2022-09-09T02:57:22;93295.31;;;19.63;75.87
7986;BME280;4038;42.612;23.066;2022-09-09T02:59:49;93293.75;;;19.98;74.26
7986;BME280;4038;42.612;23.066;2022-09-09T03:02:15;93287.50;;;19.54;75.02
7986;BME280;4038;42.612;23.066;2022-09-09T03:04:41;93302.03;;;19.75;74.40
7986;BME280;4038;42.612;23.066;2022-09-09T03:07:09;93287.72;;;19.28;75.78
7986;BME280;4038;42.612;23.066;2022-09-09T03:09:35;93293.88;;;18.77;78.12
7986;BME280;4038;42.612;23.066;2022-09-09T03:12:01;93302.34;;;19.57;75.76
7986;BME280;4038;42.612;23.066;2022-09-09T03:14:26;93287.75;;;19.71;74.56
7986;BME280;4038;42.612;23.066;2022-09-09T03:16:52;93295.94;;;19.41;75.13
7986;BME280;4038;42.612;23.066;2022-09-09T03:19:18;93290.72;;;19.66;74.92
7986;BME280;4038;42.612;23.066;2022-09-09T03:21:45;93280.53;;;19.04;77.05
7986;BME280;4038;42.612;23.066;2022-09-09T03:24:10;93298.09;;;19.63;75.50
7986;BME280;4038;42.612;23.066;2022-09-09T03:26:36;93287.53;;;19.62;74.29
7986;BME280;4038;42.612;23.066;2022-09-09T03:29:03;93304.19;;;19.54;75.50
7986;BME280;4038;42.612;23.066;2022-09-09T03:31:32;93297.19;;;18.76;77.99
7986;BME280;4038;42.612;23.066;2022-09-09T03:33:58;93295.97;;;19.13;76.86
7986;BME280;4038;42.612;23.066;2022-09-09T03:36:24;93301.72;;;19.15;77.20
7986;BME280;4038;42.612;23.066;2022-09-09T03:38:51;93297.13;;;19.25;77.57
7986;BME280;4038;42.612;23.066;2022-09-09T03:41:16;93292.88;;;18.95;78.68
7986;BME280;4038;42.612;23.066;2022-09-09T03:43:43;93294.16;;;19.51;76.43
7986;BME280;4038;42.612;23.066;2022-09-09T03:46:08;93259.34;;;19.58;75.05
7986;BME280;4038;42.612;23.066;2022-09-09T03:48:34;93292.06;;;19.80;74.92
7986;BME280;4038;42.612;23.066;2022-09-09T03:50:59;93296.88;;;19.79;75.05
7986;BME280;4038;42.612;23.066;2022-09-09T03:53:27;93293.59;;;20.04;73.78
7986;BME280;4038;42.612;23.066;2022-09-09T03:55:54;93284.63;;;19.82;74.21
7986;BME280;4038;42.612;23.066;2022-09-09T03:58:22;93287.06;;;19.42;76.46
7986;BME280;4038;42.612;23.066;2022-09-09T04:00:56;93289.66;;;19.92;74.20
7986;BME280;4038;42.612;23.066;2022-09-09T04:03:23;93286.03;;;19.61;75.79
7986;BME280;4038;42.612;23.066;2022-09-09T04:05:53;93284.88;;;20.07;73.75
7986;BME280;4038;42.612;23.066;2022-09-09T04:08:19;93289.78;;;19.71;74.63
7986;BME280;4038;42.612;23.066;2022-09-09T04:10:45;93295.50;;;20.16;73.11
7986;BME280;4038;42.612;23.066;2022-09-09T04:13:12;93285.47;;;20.13;73.14
7986;BME280;4038;42.612;23.066;2022-09-09T04:15:39;93285.16;;;20.47;71.72
7986;BME280;4038;42.612;23.066;2022-09-09T04:18:04;93281.16;;;20.05;73.37
7986;BME280;4038;42.612;23.066;2022-09-09T04:20:30;93279.22;;;19.69;74.51
7986;BME280;4038;42.612;23.066;2022-09-09T04:22:56;93283.72;;;19.87;73.84
7986;BME280;4038;42.612;23.066;2022-09-09T04:25:21;93287.50;;;20.13;73.04
7986;BME280;4038;42.612;23.066;2022-09-09T04:27:46;93289.25;;;20.77;69.96
7986;BME280;4038;42.612;23.066;2022-09-09T04:30:12;93282.34;;;20.40;70.62
7986;BME280;4038;42.612;23.066;2022-09-09T04:32:38;93294.72;;;20.08;71.79
7986;BME280;4038;42.612;23.066;2022-09-09T04:35:03;93289.94;;;20.16;72.23
7986;BME280;4038;42.612;23.066;2022-09-09T04:37:29;93291.13;;;20.67;70.10
7986;BME280;4038;42.612;23.066;2022-09-09T04:39:55;93309.59;;;20.26;71.66
7986;BME280;4038;42.612;23.066;2022-09-09T04:42:21;93306.88;;;20.34;71.49
7986;BME280;4038;42.612;23.066;2022-09-09T04:44:46;93301.09;;;20.24;71.78
7986;BME280;4038;42.612;23.066;2022-09-09T04:47:11;93293.22;;;20.00;72.52
7986;BME280;4038;42.612;23.066;2022-09-09T04:49:37;93301.97;;;20.19;72.53
7986;BME280;4038;42.612;23.066;2022-09-09T04:52:03;93279.88;;;20.13;72.23
7986;BME280;4038;42.612;23.066;2022-09-09T04:54:29;93287.38;;;20.56;71.04
7986;BME280;4038;42.612;23.066;2022-09-09T04:56:55;93275.84;;;20.83;69.79
7986;BME280;4038;42.612;23.066;2022-09-09T04:59:21;93261.03;;;20.57;70.73
7986;BME280;4038;42.612;23.066;2022-09-09T05:01:47;93267.34;;;20.58;71.37
7986;BME280;4038;42.612;23.066;2022-09-09T05:04:13;93271.78;;;20.69;70.99
7986;BME280;4038;42.612;23.066;2022-09-09T05:06:40;93270.97;;;21.29;69.26
7986;BME280;4038;42.612;23.066;2022-09-09T05:09:08;93277.97;;;21.60;68.53
7986;BME280;4038;42.612;23.066;2022-09-09T05:11:34;93277.81;;;22.31;65.33
7986;BME280;4038;42.612;23.066;2022-09-09T05:14:03;93274.56;;;22.91;63.32
7986;BME280;4038;42.612;23.066;2022-09-09T05:16:30;93257.69;;;23.76;60.39
7986;BME280;4038;42.612;23.066;2022-09-09T05:18:58;93257.53;;;24.44;58.24
7986;BME280;4038;42.612;23.066;2022-09-09T05:21:28;93262.69;;;26.08;53.44
7986;BME280;4038;42.612;23.066;2022-09-09T05:23:56;93268.47;;;25.90;52.75
7986;BME280;4038;42.612;23.066;2022-09-09T05:26:22;93269.06;;;25.79;53.83
7986;BME280;4038;42.612;23.066;2022-09-09T05:28:48;93264.47;;;26.72;51.90
7986;BME280;4038;42.612;23.066;2022-09-09T05:31:17;93248.84;;;27.43;49.38
7986;BME280;4038;42.612;23.066;2022-09-09T05:33:44;93274.56;;;27.49;49.84
7986;BME280;4038;42.612;23.066;2022-09-09T05:36:15;93256.06;;;27.46;49.52
7986;BME280;4038;42.612;23.066;2022-09-09T05:38:47;93262.00;;;26.98;50.48
7986;BME280;4038;42.612;23.066;2022-09-09T05:41:16;93251.31;;;26.65;51.20
7986;BME280;4038;42.612;23.066;2022-09-09T05:43:43;93266.56;;;25.93;53.69
7986;BME280;4038;42.612;23.066;2022-09-09T05:46:18;93273.19;;;25.97;52.97
7986;BME280;4038;42.612;23.066;2022-09-09T05:48:45;93257.94;;;25.14;55.31
7986;BME280;4038;42.612;23.066;2022-09-09T05:51:13;93275.72;;;25.93;54.70
7986;BME280;4038;42.612;23.066;2022-09-09T05:53:45;93274.81;;;26.10;54.30
7986;BME280;4038;42.612;23.066;2022-09-09T05:56:15;93282.44;;;26.89;51.93
7986;BME280;4038;42.612;23.066;2022-09-09T05:58:41;93291.78;;;26.41;53.16
7986;BME280;4038;42.612;23.066;2022-09-09T06:01:31;93277.50;;;25.89;54.66
7986;BME280;4038;42.612;23.066;2022-09-09T06:03:57;93290.34;;;26.01;54.78
7986;BME280;4038;42.612;23.066;2022-09-09T06:06:31;93274.69;;;25.60;55.68
7986;BME280;4038;42.612;23.066;2022-09-09T06:09:03;93295.47;;;27.46;51.00
7986;BME280;4038;42.612;23.066;2022-09-09T06:11:32;93295.03;;;26.97;51.37
7986;BME280;4038;42.612;23.066;2022-09-09T06:13:58;93295.59;;;26.55;52.47
7986;BME280;4038;42.612;23.066;2022-09-09T06:16:26;93277.72;;;26.81;51.95
7986;BME280;4038;42.612;23.066;2022-09-09T06:18:56;93280.94;;;27.49;50.40
7986;BME280;4038;42.612;23.066;2022-09-09T06:21:22;93284.28;;;29.12;46.81
7986;BME280;4038;42.612;23.066;2022-09-09T06:24:00;93292.47;;;29.78;44.77
7986;BME280;4038;42.612;23.066;2022-09-09T06:26:34;93293.34;;;30.18;44.13
7986;BME280;4038;42.612;23.066;2022-09-09T06:29:01;93281.06;;;30.13;43.17
7986;BME280;4038;42.612;23.066;2022-09-09T06:31:30;93276.66;;;30.10;43.42
7986;BME280;4038;42.612;23.066;2022-09-09T06:33:58;93277.09;;;31.08;41.07
7986;BME280;4038;42.612;23.066;2022-09-09T06:36:29;93274.09;;;32.45;38.22
7986;BME280;4038;42.612;23.066;2022-09-09T06:38:55;93270.88;;;32.98;36.31
7986;BME280;4038;42.612;23.066;2022-09-09T06:41:31;93273.91;;;33.17;35.87
7986;BME280;4038;42.612;23.066;2022-09-09T06:44:03;93286.69;;;33.65;35.52
7986;BME280;4038;42.612;23.066;2022-09-09T06:46:37;93283.00;;;33.14;36.30
7986;BME280;4038;42.612;23.066;2022-09-09T06:49:08;93285.97;;;34.14;34.05
7986;BME280;4038;42.612;23.066;2022-09-09T06:52:12;93295.97;;;35.04;32.70
7986;BME280;4038;42.612;23.066;2022-09-09T06:58:09;93291.59;;;35.78;31.36
7986;BME280;4038;42.612;23.066;2022-09-09T07:00:37;93291.97;;;35.11;32.10
7986;BME280;4038;42.612;23.066;2022-09-09T07:03:04;93290.25;;;33.32;34.77
7986;BME280;4038;42.612;23.066;2022-09-09T07:05:33;93292.34;;;33.48;34.45
7986;BME280;4038;42.612;23.066;2022-09-09T07:08:08;93290.97;;;33.98;33.82
7986;BME280;4038;42.612;23.066;2022-09-09T07:10:34;93286.22;;;35.88;30.51
7986;BME280;4038;42.612;23.066;2022-09-09T07:13:06;93283.38;;;34.91;31.02
7986;BME280;4038;42.612;23.066;2022-09-09T07:15:32;93278.81;;;36.20;29.43
7986;BME280;4038;42.612;23.066;2022-09-09T07:18:00;93286.06;;;34.52;32.03
7986;BME280;4038;42.612;23.066;2022-09-09T07:21:13;93286.16;;;35.27;31.50
7986;BME280;4038;42.612;23.066;2022-09-09T07:23:12;93290.63;;;36.54;29.36
7986;BME280;4038;42.612;23.066;2022-09-09T07:25:44;93282.94;;;36.59;28.70
7986;BME280;4038;42.612;23.066;2022-09-09T07:28:10;93282.03;;;36.11;29.58
7986;BME280;4038;42.612;23.066;2022-09-09T07:30:36;93269.63;;;35.62;30.10
7986;BME280;4038;42.612;23.066;2022-09-09T07:33:01;93277.25;;;35.76;30.31
7986;BME280;4038;42.612;23.066;2022-09-09T07:35:31;93286.16;;;36.93;28.65
7986;BME280;4038;42.612;23.066;2022-09-09T07:38:01;93287.84;;;35.34;30.55
7986;BME280;4038;42.612;23.066;2022-09-09T07:40:26;93280.91;;;35.58;30.95
7986;BME280;4038;42.612;23.066;2022-09-09T07:42:53;93282.88;;;33.43;34.53
7986;BME280;4038;42.612;23.066;2022-09-09T07:45:22;93282.84;;;34.08;32.91
7986;BME280;4038;42.612;23.066;2022-09-09T07:47:48;93284.84;;;33.88;33.99
7986;BME280;4038;42.612;23.066;2022-09-09T07:52:56;93284.72;;;32.89;35.36
7986;BME280;4038;42.612;23.066;2022-09-09T07:55:25;93291.69;;;32.57;34.74
7986;BME280;4038;42.612;23.066;2022-09-09T07:58:08;93279.81;;;33.70;33.23
7986;BME280;4038;42.612;23.066;2022-09-09T08:01:05;93291.19;;;31.74;36.49
7986;BME280;4038;42.612;23.066;2022-09-09T08:03:36;93288.31;;;31.06;38.24
7986;BME280;4038;42.612;23.066;2022-09-09T08:06:07;93292.41;;;31.58;37.48
7986;BME280;4038;42.612;23.066;2022-09-09T08:08:37;93282.09;;;32.05;37.36
7986;BME280;4038;42.612;23.066;2022-09-09T08:11:11;93289.84;;;32.64;35.07
7986;BME280;4038;42.612;23.066;2022-09-09T08:13:43;93288.59;;;32.67;35.21
7986;BME280;4038;42.612;23.066;2022-09-09T08:16:22;93287.69;;;30.43;39.18
7986;BME280;4038;42.612;23.066;2022-09-09T08:18:54;93292.53;;;30.80;38.74
7986;BME280;4038;42.612;23.066;2022-09-09T08:21:32;93298.19;;;31.32;37.87
7986;BME280;4038;42.612;23.066;2022-09-09T08:24:02;93292.97;;;31.68;37.47
7986;BME280;4038;42.612;23.066;2022-09-09T08:26:39;93294.22;;;30.85;38.55
7986;BME280;4038;42.612;23.066;2022-09-09T08:29:11;93286.72;;;31.03;38.51
7986;BME280;4038;42.612;23.066;2022-09-09T08:31:54;93282.78;;;30.18;40.38
7986;BME280;4038;42.612;23.066;2022-09-09T08:34:26;93279.66;;;29.89;40.91
7986;BME280;4038;42.612;23.066;2022-09-09T08:36:55;93280.16;;;29.85;40.85
7986;BME280;4038;42.612;23.066;2022-09-09T08:39:27;93289.75;;;30.54;39.78
7986;BME280;4038;42.612;23.066;2022-09-09T08:42:26;93286.34;;;31.77;37.85
7986;BME280;4038;42.612;23.066;2022-09-09T08:48:17;93276.28;;;33.54;34.78
7986;BME280;4038;42.612;23.066;2022-09-09T08:50:51;93279.03;;;33.52;34.37
7986;BME280;4038;42.612;23.066;2022-09-09T08:53:37;93279.59;;;31.57;37.23
7986;BME280;4038;42.612;23.066;2022-09-09T08:56:31;93288.13;;;31.84;38.67
7986;BME280;4038;42.612;23.066;2022-09-09T08:59:18;93289.47;;;31.97;37.72
7986;BME280;4038;42.612;23.066;2022-09-09T09:02:15;93293.28;;;31.74;37.74
7986;BME280;4038;42.612;23.066;2022-09-09T09:08:17;93293.41;;;32.48;36.36
7986;BME280;4038;42.612;23.066;2022-09-09T09:14:34;93285.81;;;31.53;38.22
7986;BME280;4038;42.612;23.066;2022-09-09T09:19:38;93293.16;;;32.58;36.47
7986;BME280;4038;42.612;23.066;2022-09-09T09:22:36;93275.72;;;32.79;35.89
7986;BME280;4038;42.612;23.066;2022-09-09T09:25:20;93286.13;;;32.30;36.91
7986;BME280;4038;42.612;23.066;2022-09-09T09:28:02;93280.34;;;32.14;37.13
7986;BME280;4038;42.612;23.066;2022-09-09T09:30:44;93282.44;;;31.29;38.00
7986;BME280;4038;42.612;23.066;2022-09-09T09:36:10;93270.84;;;29.71;43.66
7986;BME280;4038;42.612;23.066;2022-09-09T09:39:00;93260.41;;;29.74;42.17
7986;BME280;4038;42.612;23.066;2022-09-09T09:41:38;93261.09;;;29.86;41.96
7986;BME280;4038;42.612;23.066;2022-09-09T09:44:18;93266.19;;;30.38;41.87
7986;BME280;4038;42.612;23.066;2022-09-09T09:47:19;93261.88;;;29.75;42.69
7986;BME280;4038;42.612;23.066;2022-09-09T09:50:01;93266.63;;;29.96;42.02
7986;BME280;4038;42.612;23.066;2022-09-09T09:52:36;93272.53;;;28.93;44.79
7986;BME280;4038;42.612;23.066;2022-09-09T09:55:16;93262.19;;;28.18;46.25
7986;BME280;4038;42.612;23.066;2022-09-09T09:57:51;93269.09;;;29.06;44.11
7986;BME280;4038;42.612;23.066;2022-09-09T10:00:25;93266.56;;;28.54;45.44
7986;BME280;4038;42.612;23.066;2022-09-09T10:02:51;93275.56;;;29.55;43.55
7986;BME280;4038;42.612;23.066;2022-09-09T10:05:22;93277.84;;;29.70;42.97
7986;BME280;4038;42.612;23.066;2022-09-09T10:10:59;93284.13;;;29.69;43.31
7986;BME280;4038;42.612;23.066;2022-09-09T10:14:00;93295.75;;;29.38;43.63
7986;BME280;4038;42.612;23.066;2022-09-09T10:17:14;93282.09;;;29.46;43.37
7986;BME280;4038;42.612;23.066;2022-09-09T10:20:30;93283.44;;;28.98;45.36
7986;BME280;4038;42.612;23.066;2022-09-09T10:34:43;93293.03;;;28.49;47.94
7986;BME280;4038;42.612;23.066;2022-09-09T10:40:02;93300.63;;;29.26;45.55
7986;BME280;4038;42.612;23.066;2022-09-09T10:42:37;93294.22;;;29.60;45.05
7986;BME280;4038;42.612;23.066;2022-09-09T10:57:17;93316.72;;;28.44;49.71
7986;BME280;4038;42.612;23.066;2022-09-09T10:59:50;93323.38;;;27.73;50.94
7986;BME280;4038;42.612;23.066;2022-09-09T11:02:22;93316.78;;;28.34;49.42
7986;BME280;4038;42.612;23.066;2022-09-09T11:04:58;93305.53;;;28.13;49.38
7986;BME280;4038;42.612;23.066;2022-09-09T11:07:46;93306.63;;;28.41;48.56
7986;BME280;4038;42.612;23.066;2022-09-09T11:10:44;93312.41;;;29.22;47.05
7986;BME280;4038;42.612;23.066;2022-09-09T11:13:29;93306.25;;;28.91;47.23
7986;BME280;4038;42.612;23.066;2022-09-09T11:16:11;93293.59;;;28.24;48.95
7986;BME280;4038;42.612;23.066;2022-09-09T11:18:42;93291.28;;;27.99;49.68
7986;BME280;4038;42.612;23.066;2022-09-09T11:21:22;93280.00;;;27.99;50.78
7986;BME280;4038;42.612;23.066;2022-09-09T11:24:20;93287.81;;;28.66;49.50
7986;BME280;4038;42.612;23.066;2022-09-09T11:27:02;93275.97;;;28.80;49.92
7986;BME280;4038;42.612;23.066;2022-09-09T11:30:02;93261.34;;;29.06;49.54
7986;BME280;4038;42.612;23.066;2022-09-09T11:35:40;93223.44;;;28.18;50.62
7986;BME280;4038;42.612;23.066;2022-09-09T11:41:13;93228.09;;;29.17;49.50
7986;BME280;4038;42.612;23.066;2022-09-09T11:44:30;93244.94;;;29.75;47.24
7986;BME280;4038;42.612;23.066;2022-09-09T11:46:54;93247.28;;;29.67;47.25
7986;BME280;4038;42.612;23.066;2022-09-09T11:55:59;93223.88;;;29.53;48.21
7986;BME280;4038;42.612;23.066;2022-09-09T12:01:43;93221.47;;;29.72;47.00
7986;BME280;4038;42.612;23.066;2022-09-09T12:04:54;93231.13;;;28.51;50.03
7986;BME280;4038;42.612;23.066;2022-09-09T12:10:32;93238.13;;;28.73;48.23
7986;BME280;4038;42.612;23.066;2022-09-09T12:13:19;93221.00;;;28.24;50.14
7986;BME280;4038;42.612;23.066;2022-09-09T12:15:50;93223.94;;;27.39;52.64
7986;BME280;4038;42.612;23.066;2022-09-09T12:18:23;93206.63;;;26.91;54.55
7986;BME280;4038;42.612;23.066;2022-09-09T12:21:32;93213.63;;;27.32;53.17
7986;BME280;4038;42.612;23.066;2022-09-09T12:24:05;93220.28;;;28.24;49.79
7986;BME280;4038;42.612;23.066;2022-09-09T12:26:38;93218.72;;;27.45;52.21
7986;BME280;4038;42.612;23.066;2022-09-09T12:32:12;93216.03;;;27.26;53.36
7986;BME280;4038;42.612;23.066;2022-09-09T12:34:54;93215.34;;;27.16;54.14
7986;BME280;4038;42.612;23.066;2022-09-09T12:37:36;93212.03;;;26.77;56.51
7986;BME280;4038;42.612;23.066;2022-09-09T12:40:06;93202.50;;;26.92;56.30
7986;BME280;4038;42.612;23.066;2022-09-09T12:42:32;93209.22;;;27.08;56.22
7986;BME280;4038;42.612;23.066;2022-09-09T12:45:16;93201.97;;;27.05;57.59
7986;BME280;4038;42.612;23.066;2022-09-09T12:47:48;93199.09;;;27.14;56.39
7986;BME280;4038;42.612;23.066;2022-09-09T12:52:43;93193.91;;;26.90;55.13
7986;BME280;4038;42.612;23.066;2022-09-09T12:55:20;93187.03;;;26.71;55.62
7986;BME280;4038;42.612;23.066;2022-09-09T12:57:48;93179.66;;;26.88;55.34
7986;BME280;4038;42.612;23.066;2022-09-09T13:00:22;93180.91;;;27.27;54.97
7986;BME280;4038;42.612;23.066;2022-09-09T13:02:54;93174.09;;;27.30;53.62
7986;BME280;4038;42.612;23.066;2022-09-09T13:05:26;93159.47;;;27.43;52.35
7986;BME280;4038;42.612;23.066;2022-09-09T13:08:01;93174.97;;;26.80;54.84
7986;BME280;4038;42.612;23.066;2022-09-09T13:10:35;93178.22;;;26.87;54.48
7986;BME280;4038;42.612;23.066;2022-09-09T13:13:15;93168.16;;;27.47;53.84
7986;BME280;4038;42.612;23.066;2022-09-09T13:15:48;93167.91;;;27.65;52.38
7986;BME280;4038;42.612;23.066;2022-09-09T13:18:21;93172.13;;;27.54;52.52
7986;BME280;4038;42.612;23.066;2022-09-09T13:20:57;93173.75;;;26.93;54.71
7986;BME280;4038;42.612;23.066;2022-09-09T13:23:27;93170.09;;;26.10;57.16
7986;BME280;4038;42.612;23.066;2022-09-09T13:25:58;93152.59;;;26.61;56.40
7986;BME280;4038;42.612;23.066;2022-09-09T13:28:30;93150.50;;;26.62;56.30
7986;BME280;4038;42.612;23.066;2022-09-09T13:31:28;93150.38;;;26.29;57.33
7986;BME280;4038;42.612;23.066;2022-09-09T13:33:54;93149.81;;;26.11;58.59
7986;BME280;4038;42.612;23.066;2022-09-09T13:36:31;93150.19;;;26.67;57.22
7986;BME280;4038;42.612;23.066;2022-09-09T13:39:00;93136.00;;;25.84;58.89
7986;BME280;4038;42.612;23.066;2022-09-09T13:41:33;93138.56;;;26.21;57.84
7986;BME280;4038;42.612;23.066;2022-09-09T13:44:00;93140.63;;;26.51;57.69
7986;BME280;4038;42.612;23.066;2022-09-09T13:46:40;93144.66;;;27.22;55.43
7986;BME280;4038;42.612;23.066;2022-09-09T13:51:44;93146.19;;;28.00;52.47
7986;BME280;4038;42.612;23.066;2022-09-09T13:54:17;93139.38;;;28.50;52.13
7986;BME280;4038;42.612;23.066;2022-09-09T13:56:46;93147.47;;;28.67;51.32
7986;BME280;4038;42.612;23.066;2022-09-09T13:59:14;93140.34;;;28.89;50.89
7986;BME280;4038;42.612;23.066;2022-09-09T14:01:41;93142.63;;;27.88;53.40
7986;BME280;4038;42.612;23.066;2022-09-09T14:04:07;93128.53;;;27.22;56.02
7986;BME280;4038;42.612;23.066;2022-09-09T14:06:34;93135.88;;;26.85;57.35
7986;BME280;4038;42.612;23.066;2022-09-09T14:09:04;93127.44;;;27.60;55.31
7986;BME280;4038;42.612;23.066;2022-09-09T14:11:30;93130.63;;;27.99;54.18
7986;BME280;4038;42.612;23.066;2022-09-09T14:14:01;93115.84;;;28.45;52.48
7986;BME280;4038;42.612;23.066;2022-09-09T14:16:30;93119.47;;;29.68;50.45
7986;BME280;4038;42.612;23.066;2022-09-09T14:19:03;93116.44;;;29.64;50.16
7986;BME280;4038;42.612;23.066;2022-09-09T14:21:32;93118.31;;;29.11;51.52
7986;BME280;4038;42.612;23.066;2022-09-09T14:24:01;93124.81;;;29.87;49.33
7986;BME280;4038;42.612;23.066;2022-09-09T14:26:27;93114.31;;;30.15;48.47
7986;BME280;4038;42.612;23.066;2022-09-09T14:28:58;93120.47;;;30.64;46.95
7986;BME280;4038;42.612;23.066;2022-09-09T14:31:35;93120.84;;;30.32;46.17
7986;BME280;4038;42.612;23.066;2022-09-09T14:34:04;93115.19;;;30.18;47.96
7986;BME280;4038;42.612;23.066;2022-09-09T14:36:31;93112.97;;;29.40;48.23
7986;BME280;4038;42.612;23.066;2022-09-09T14:38:57;93103.53;;;29.86;46.50
7986;BME280;4038;42.612;23.066;2022-09-09T14:41:23;93101.84;;;30.07;46.42
7986;BME280;4038;42.612;23.066;2022-09-09T14:43:53;93116.88;;;29.98;46.99
7986;BME280;4038;42.612;23.066;2022-09-09T14:46:20;93116.88;;;29.47;46.54
7986;BME280;4038;42.612;23.066;2022-09-09T14:48:49;93115.34;;;29.21;46.90
7986;BME280;4038;42.612;23.066;2022-09-09T14:51:23;93123.38;;;29.12;47.42
7986;BME280;4038;42.612;23.066;2022-09-09T14:53:55;93124.06;;;28.88;47.95
7986;BME280;4038;42.612;23.066;2022-09-09T14:56:29;93118.81;;;29.19;47.79
7986;BME280;4038;42.612;23.066;2022-09-09T14:59:01;93117.69;;;29.61;46.86
7986;BME280;4038;42.612;23.066;2022-09-09T15:01:36;93128.31;;;29.74;46.49
7986;BME280;4038;42.612;23.066;2022-09-09T15:04:10;93127.88;;;29.29;47.71
7986;BME280;4038;42.612;23.066;2022-09-09T15:06:40;93125.06;;;29.55;46.07
7986;BME280;4038;42.612;23.066;2022-09-09T15:09:08;93121.97;;;29.87;45.32
7986;BME280;4038;42.612;23.066;2022-09-09T15:11:36;93116.91;;;30.78;43.66
7986;BME280;4038;42.612;23.066;2022-09-09T15:14:07;93114.72;;;30.90;42.47
7986;BME280;4038;42.612;23.066;2022-09-09T15:16:33;93119.50;;;30.46;43.54
7986;BME280;4038;42.612;23.066;2022-09-09T15:19:03;93111.09;;;30.21;44.64
7986;BME280;4038;42.612;23.066;2022-09-09T15:21:34;93106.75;;;28.82;48.59
7986;BME280;4038;42.612;23.066;2022-09-09T15:24:03;93105.03;;;28.88;47.92
7986;BME280;4038;42.612;23.066;2022-09-09T15:26:30;93105.88;;;28.67;47.77
7986;BME280;4038;42.612;23.066;2022-09-09T15:28:59;93109.56;;;28.93;47.45
7986;BME280;4038;42.612;23.066;2022-09-09T15:31:28;93109.69;;;28.84;47.63
7986;BME280;4038;42.612;23.066;2022-09-09T15:34:00;93106.00;;;28.69;48.13
7986;BME280;4038;42.612;23.066;2022-09-09T15:39:03;93108.34;;;28.26;49.28
7986;BME280;4038;42.612;23.066;2022-09-09T15:41:30;93118.94;;;27.81;50.06
7986;BME280;4038;42.612;23.066;2022-09-09T15:44:06;93109.47;;;28.45;48.56